<?xml version='1.0' encoding='UTF-8'?><gpx version="1.1" creator="JPX - https://github.com/jenetics/jpx" xmlns="http://www.topografix.com/GPX/1/1"><trk><trkseg><trkpt lat="45.5454829" lon="10.2806674"><ele>811.0</ele><time>2026-05-04T12:24:51.853Z</time></trkpt><trkpt lat="45.5455332" lon="10.2806018"><ele>811.0</ele><time>2026-05-04T12:25:25.853Z</time></trkpt><trkpt lat="45.5456051" lon="10.2804109"><ele>811.0</ele><time>2026-05-04T12:25:31.853Z</time></trkpt><trkpt lat="45.5456667" lon="10.2803062"><ele>811.0</ele><time>2026-05-04T12:25:33.853Z</time></trkpt><trkpt lat="45.545708" lon="10.2802246"><ele>811.0</ele><time>2026-05-04T12:25:35.853Z</time></trkpt><trkpt lat="45.5457813" lon="10.2801349"><ele>810.0</ele><time>2026-05-04T12:25:38.853Z</time></trkpt><trkpt lat="45.5458256" lon="10.2800698"><ele>809.0</ele><time>2026-05-04T12:25:40.853Z</time></trkpt><trkpt lat="45.5458404" lon="10.2799756"><ele>808.0</ele><time>2026-05-04T12:25:43.853Z</time></trkpt><trkpt lat="45.5458602" lon="10.2798617"><ele>807.0</ele><time>2026-05-04T12:25:46.853Z</time></trkpt><trkpt lat="45.5458546" lon="10.2796233"><ele>806.0</ele><time>2026-05-04T12:25:52.853Z</time></trkpt><trkpt lat="45.5458188" lon="10.2795005"><ele>805.0</ele><time>2026-05-04T12:25:55.853Z</time></trkpt><trkpt lat="45.5458021" lon="10.2793618"><ele>804.0</ele><time>2026-05-04T12:25:58.853Z</time></trkpt><trkpt lat="45.5458011" lon="10.2792376"><ele>803.0</ele><time>2026-05-04T12:26:00.853Z</time></trkpt><trkpt lat="45.5458183" lon="10.2790837"><ele>802.0</ele><time>2026-05-04T12:26:02.853Z</time></trkpt><trkpt lat="45.5458228" lon="10.2789457"><ele>801.0</ele><time>2026-05-04T12:26:04.853Z</time></trkpt><trkpt lat="45.5458017" lon="10.2788215"><ele>800.0</ele><time>2026-05-04T12:26:06.853Z</time></trkpt><trkpt lat="45.5457453" lon="10.2786954"><ele>799.0</ele><time>2026-05-04T12:26:08.853Z</time></trkpt><trkpt lat="45.5456043" lon="10.2784942"><ele>798.0</ele><time>2026-05-04T12:26:12.853Z</time></trkpt><trkpt lat="45.5455398" lon="10.2784402"><ele>797.0</ele><time>2026-05-04T12:26:14.853Z</time></trkpt><trkpt lat="45.5454929" lon="10.2783414"><ele>797.0</ele><time>2026-05-04T12:26:17.854Z</time></trkpt><trkpt lat="45.5456048" lon="10.2783193"><ele>797.0</ele><time>2026-05-04T12:26:20.853Z</time></trkpt><trkpt lat="45.5457053" lon="10.2783693"><ele>797.0</ele><time>2026-05-04T12:26:22.853Z</time></trkpt><trkpt lat="45.5457578" lon="10.2784192"><ele>797.0</ele><time>2026-05-04T12:26:23.854Z</time></trkpt><trkpt lat="45.5458373" lon="10.2785434"><ele>797.0</ele><time>2026-05-04T12:26:25.854Z</time></trkpt><trkpt lat="45.5458773" lon="10.2786144"><ele>797.0</ele><time>2026-05-04T12:26:26.853Z</time></trkpt><trkpt lat="45.545951" lon="10.2787189"><ele>797.0</ele><time>2026-05-04T12:26:28.853Z</time></trkpt><trkpt lat="45.5459998" lon="10.2788564"><ele>797.0</ele><time>2026-05-04T12:26:30.853Z</time></trkpt><trkpt lat="45.5461076" lon="10.279079"><ele>797.0</ele><time>2026-05-04T12:26:33.853Z</time></trkpt><trkpt lat="45.5461366" lon="10.2791611"><ele>797.6666666666667</ele><time>2026-05-04T12:26:34.853Z</time></trkpt><trkpt lat="45.546149" lon="10.2792611"><ele>798.3333333333334</ele><time>2026-05-04T12:26:35.853Z</time></trkpt><trkpt lat="45.5461415" lon="10.2793537"><ele>799.0</ele><time>2026-05-04T12:26:36.853Z</time></trkpt><trkpt lat="45.5461397" lon="10.2794443"><ele>799.6666666666667</ele><time>2026-05-04T12:26:37.853Z</time></trkpt><trkpt lat="45.5461271" lon="10.2795395"><ele>800.3333333333334</ele><time>2026-05-04T12:26:38.853Z</time></trkpt><trkpt lat="45.546132" lon="10.2796412"><ele>801.0</ele><time>2026-05-04T12:26:39.853Z</time></trkpt><trkpt lat="45.5461598" lon="10.279835"><ele>800.4</ele><time>2026-05-04T12:26:41.853Z</time></trkpt><trkpt lat="45.5461841" lon="10.2799665"><ele>799.8</ele><time>2026-05-04T12:26:43.853Z</time></trkpt><trkpt lat="45.5462654" lon="10.2800474"><ele>799.1999999999999</ele><time>2026-05-04T12:26:45.853Z</time></trkpt><trkpt lat="45.5463385" lon="10.280088"><ele>798.5999999999999</ele><time>2026-05-04T12:26:46.853Z</time></trkpt><trkpt lat="45.5464422" lon="10.2801089"><ele>798.0</ele><time>2026-05-04T12:26:48.853Z</time></trkpt><trkpt lat="45.5465532" lon="10.2801496"><ele>798.0</ele><time>2026-05-04T12:26:50.853Z</time></trkpt><trkpt lat="45.5466197" lon="10.2801963"><ele>798.0</ele><time>2026-05-04T12:26:54.853Z</time></trkpt><trkpt lat="45.5467426" lon="10.2802806"><ele>798.0</ele><time>2026-05-04T12:26:59.853Z</time></trkpt><trkpt lat="45.5467735" lon="10.2803723"><ele>798.0</ele><time>2026-05-04T12:27:02.853Z</time></trkpt><trkpt lat="45.5468478" lon="10.280499"><ele>798.0</ele><time>2026-05-04T12:27:05.853Z</time></trkpt><trkpt lat="45.5468878" lon="10.2806056"><ele>796.6666666666666</ele><time>2026-05-04T12:27:07.853Z</time></trkpt><trkpt lat="45.5469705" lon="10.2806972"><ele>795.3333333333333</ele><time>2026-05-04T12:27:09.853Z</time></trkpt><trkpt lat="45.5470153" lon="10.2807799"><ele>794.0</ele><time>2026-05-04T12:27:11.853Z</time></trkpt><trkpt lat="45.5470782" lon="10.2808544"><ele>792.6666666666666</ele><time>2026-05-04T12:27:12.854Z</time></trkpt><trkpt lat="45.5471124" lon="10.2809379"><ele>791.3333333333333</ele><time>2026-05-04T12:27:13.853Z</time></trkpt><trkpt lat="45.5471506" lon="10.2810878"><ele>790.0</ele><time>2026-05-04T12:27:15.853Z</time></trkpt><trkpt lat="45.5472186" lon="10.2812542"><ele>790.0</ele><time>2026-05-04T12:27:17.853Z</time></trkpt><trkpt lat="45.5472715" lon="10.2813975"><ele>790.0</ele><time>2026-05-04T12:27:19.853Z</time></trkpt><trkpt lat="45.5473316" lon="10.2815388"><ele>790.0</ele><time>2026-05-04T12:27:21.853Z</time></trkpt><trkpt lat="45.5473443" lon="10.2816349"><ele>790.0</ele><time>2026-05-04T12:27:22.853Z</time></trkpt><trkpt lat="45.5473384" lon="10.2817753"><ele>790.0</ele><time>2026-05-04T12:27:24.853Z</time></trkpt><trkpt lat="45.5473329" lon="10.281918"><ele>791.4</ele><time>2026-05-04T12:27:26.853Z</time></trkpt><trkpt lat="45.5473241" lon="10.2820735"><ele>792.8</ele><time>2026-05-04T12:27:28.853Z</time></trkpt><trkpt lat="45.5473191" lon="10.2821768"><ele>794.2</ele><time>2026-05-04T12:27:30.853Z</time></trkpt><trkpt lat="45.5473384" lon="10.2823208"><ele>795.6</ele><time>2026-05-04T12:27:32.853Z</time></trkpt><trkpt lat="45.5473759" lon="10.2824292"><ele>797.0</ele><time>2026-05-04T12:27:34.853Z</time></trkpt><trkpt lat="45.5474823" lon="10.2823877"><ele>797.2</ele><time>2026-05-04T12:27:36.853Z</time></trkpt><trkpt lat="45.5476265" lon="10.2823602"><ele>797.4000000000001</ele><time>2026-05-04T12:27:38.854Z</time></trkpt><trkpt lat="45.5477072" lon="10.2823475"><ele>797.5999999999999</ele><time>2026-05-04T12:27:39.853Z</time></trkpt><trkpt lat="45.5477743" lon="10.2823303"><ele>797.8</ele><time>2026-05-04T12:27:40.853Z</time></trkpt><trkpt lat="45.5479014" lon="10.2823133"><ele>798.0</ele><time>2026-05-04T12:27:42.853Z</time></trkpt><trkpt lat="45.5479647" lon="10.2822736"><ele>798.0</ele><time>2026-05-04T12:27:43.853Z</time></trkpt><trkpt lat="45.5480384" lon="10.2822267"><ele>798.0</ele><time>2026-05-04T12:27:44.853Z</time></trkpt><trkpt lat="45.5481465" lon="10.2822551"><ele>798.0</ele><time>2026-05-04T12:27:46.853Z</time></trkpt><trkpt lat="45.5482506" lon="10.282239"><ele>798.0</ele><time>2026-05-04T12:27:48.854Z</time></trkpt><trkpt lat="45.548325" lon="10.2822617"><ele>798.0</ele><time>2026-05-04T12:27:50.853Z</time></trkpt><trkpt lat="45.5484107" lon="10.2822751"><ele>798.0</ele><time>2026-05-04T12:27:52.853Z</time></trkpt><trkpt lat="45.548309" lon="10.2822258"><ele>798.0</ele><time>2026-05-04T12:27:57.853Z</time></trkpt><trkpt lat="45.5481787" lon="10.2822457"><ele>798.0</ele><time>2026-05-04T12:27:59.853Z</time></trkpt><trkpt lat="45.5480819" lon="10.2823041"><ele>798.0</ele><time>2026-05-04T12:28:01.853Z</time></trkpt><trkpt lat="45.5480863" lon="10.2822084"><ele>798.0</ele><time>2026-05-04T12:28:07.853Z</time></trkpt><trkpt lat="45.5481375" lon="10.2821483"><ele>795.3333333333334</ele><time>2026-05-04T12:28:10.853Z</time></trkpt><trkpt lat="45.5481999" lon="10.2820768"><ele>792.6666666666667</ele><time>2026-05-04T12:28:14.853Z</time></trkpt><trkpt lat="45.5482692" lon="10.2820353"><ele>790.0</ele><time>2026-05-04T12:28:18.853Z</time></trkpt><trkpt lat="45.5483821" lon="10.2819312"><ele>787.3333333333334</ele><time>2026-05-04T12:28:27.853Z</time></trkpt><trkpt lat="45.5484459" lon="10.2818781"><ele>784.6666666666667</ele><time>2026-05-04T12:28:30.853Z</time></trkpt><trkpt lat="45.5485042" lon="10.2817896"><ele>782.0</ele><time>2026-05-04T12:28:33.853Z</time></trkpt><trkpt lat="45.5485544" lon="10.281699"><ele>782.0000000000001</ele><time>2026-05-04T12:28:36.853Z</time></trkpt><trkpt lat="45.5486081" lon="10.2816389"><ele>782.0</ele><time>2026-05-04T12:28:39.852Z</time></trkpt><trkpt lat="45.5487246" lon="10.2814908"><ele>782.0</ele><time>2026-05-04T12:28:48.853Z</time></trkpt><trkpt lat="45.5488054" lon="10.2814666"><ele>782.0</ele><time>2026-05-04T12:28:50.853Z</time></trkpt><trkpt lat="45.5488694" lon="10.2814288"><ele>782.0000000000001</ele><time>2026-05-04T12:28:52.853Z</time></trkpt><trkpt lat="45.54892" lon="10.2813665"><ele>782.0</ele><time>2026-05-04T12:28:54.853Z</time></trkpt><trkpt lat="45.5489917" lon="10.2813107"><ele>777.6666666666667</ele><time>2026-05-04T12:28:57.853Z</time></trkpt><trkpt lat="45.5490539" lon="10.2812941"><ele>773.3333333333334</ele><time>2026-05-04T12:28:59.853Z</time></trkpt><trkpt lat="45.5491273" lon="10.2812933"><ele>769.0</ele><time>2026-05-04T12:29:03.853Z</time></trkpt><trkpt lat="45.5491901" lon="10.2811038"><ele>764.6666666666667</ele><time>2026-05-04T12:29:10.853Z</time></trkpt><trkpt lat="45.5491676" lon="10.2810126"><ele>760.3333333333334</ele><time>2026-05-04T12:29:13.853Z</time></trkpt><trkpt lat="45.5491626" lon="10.2809187"><ele>756.0</ele><time>2026-05-04T12:29:16.853Z</time></trkpt><trkpt lat="45.5491866" lon="10.2808075"><ele>756.0</ele><time>2026-05-04T12:29:20.853Z</time></trkpt><trkpt lat="45.5492094" lon="10.2807034"><ele>756.0</ele><time>2026-05-04T12:29:24.853Z</time></trkpt><trkpt lat="45.5492202" lon="10.2805073"><ele>756.0</ele><time>2026-05-04T12:29:31.853Z</time></trkpt><trkpt lat="45.5492464" lon="10.2803948"><ele>756.0</ele><time>2026-05-04T12:29:35.853Z</time></trkpt><trkpt lat="45.5492325" lon="10.2802759"><ele>756.0</ele><time>2026-05-04T12:29:38.853Z</time></trkpt><trkpt lat="45.5492594" lon="10.2801846"><ele>743.0</ele><time>2026-05-04T12:29:42.853Z</time></trkpt><trkpt lat="45.5492601" lon="10.2800621"><ele>743.0</ele><time>2026-05-04T12:29:49.853Z</time></trkpt></trkseg></trk></gpx>